createdAt,value
2022-11-26T00:02:20.532Z,98122.86
2022-11-26T00:04:51.547Z,98123.40
2022-11-26T00:07:25.643Z,98122.20
2022-11-26T00:09:56.919Z,98120.84
2022-11-26T00:12:28.644Z,98124.27
2022-11-26T00:14:58.898Z,98127.34
2022-11-26T00:17:28.858Z,98131.08
2022-11-26T00:19:58.927Z,98129.20
2022-11-26T00:22:32.428Z,98132.80
2022-11-26T00:25:02.379Z,98135.03
2022-11-26T00:27:32.887Z,98136.23
2022-11-26T00:30:05.968Z,98141.52
2022-11-26T00:32:35.802Z,98141.73
2022-11-26T00:35:06.830Z,98142.95
2022-11-26T00:37:40.528Z,98144.84
2022-11-26T00:40:16.239Z,98140.58
2022-11-26T00:42:46.136Z,98143.59
2022-11-26T00:45:21.867Z,98147.05
2022-11-26T00:47:51.908Z,98145.20
2022-11-26T00:50:23.384Z,98151.88
2022-11-26T00:52:55.720Z,98149.50
2022-11-26T00:55:34.086Z,98149.84
2022-11-26T00:58:04.976Z,98153.44
2022-11-26T01:00:35.928Z,98153.09
2022-11-26T01:03:05.977Z,98154.29
2022-11-26T01:05:36.782Z,98159.91
2022-11-26T01:08:26.857Z,98156.84
2022-11-26T01:11:01.809Z,98153.45
2022-11-26T01:13:32.681Z,98157.39
2022-11-26T01:16:07.727Z,98158.27
2022-11-26T01:18:37.862Z,98160.86
2022-11-26T01:21:09.627Z,98161.24
2022-11-26T01:23:39.765Z,98161.49
2022-11-26T01:26:16.626Z,98161.35
2022-11-26T01:28:47.576Z,98162.77
2022-11-26T01:31:20.053Z,98160.23
2022-11-26T01:33:50.560Z,98161.10
2022-11-26T01:36:27.186Z,98162.30
2022-11-26T01:38:58.577Z,98162.64
2022-11-26T01:41:47.297Z,98163.81
2022-11-26T01:44:20.859Z,98163.95
2022-11-26T01:46:52.020Z,98162.09
2022-11-26T01:49:41.688Z,98166.16
2022-11-26T01:52:21.699Z,98174.69
2022-11-26T01:54:53.389Z,98176.55
2022-11-26T01:57:26.298Z,98180.48
2022-11-26T02:00:01.239Z,98187.16
2022-11-26T02:02:31.596Z,98192.98
2022-11-26T02:05:08.027Z,98195.55
2022-11-26T02:07:38.623Z,98192.67
2022-11-26T02:10:10.697Z,98193.36
2022-11-26T02:12:41.818Z,98191.50
2022-11-26T02:15:14.417Z,98191.67
2022-11-26T02:17:47.040Z,98193.94
2022-11-26T02:20:41.793Z,98188.29
2022-11-26T02:23:42.357Z,98192.09
2022-11-26T02:26:45.951Z,98187.64
2022-11-26T02:29:29.119Z,98189.02
2022-11-26T02:32:05.668Z,98188.70
2022-11-26T02:34:44.295Z,98190.79
2022-11-26T02:37:19.748Z,98190.13
2022-11-26T02:39:49.498Z,98189.45
2022-11-26T02:42:27.825Z,98191.35
2022-11-26T02:45:02.537Z,98188.96
2022-11-26T02:47:35.307Z,98187.95
2022-11-26T02:50:10.784Z,98188.14
2022-11-26T02:52:42.749Z,98186.09
2022-11-26T02:55:15.697Z,98186.09
2022-11-26T02:57:50.097Z,98189.69
2022-11-26T03:00:21.520Z,98193.77
2022-11-26T03:02:55.077Z,98191.55
2022-11-26T03:05:26.139Z,98191.53
2022-11-26T03:07:57.221Z,98189.13
2022-11-26T03:10:29.210Z,98192.84
2022-11-26T03:12:59.317Z,98194.88
2022-11-26T03:15:29.065Z,98194.85
2022-11-26T03:17:59.077Z,98198.94
2022-11-26T03:20:29.071Z,98198.77
2022-11-26T03:22:59.156Z,98202.69
2022-11-26T03:25:29.117Z,98207.60
2022-11-26T03:27:58.957Z,98204.48
2022-11-26T03:30:29.327Z,98207.55
2022-11-26T03:33:02.817Z,98209.78
2022-11-26T03:35:32.978Z,98211.14
2022-11-26T03:38:02.996Z,98209.79
2022-11-26T03:40:33.104Z,98214.88
2022-11-26T03:43:02.987Z,98214.17
2022-11-26T03:45:32.796Z,98212.83
2022-11-26T03:48:03.059Z,98217.45
2022-11-26T03:50:33.258Z,98215.90
2022-11-26T03:53:03.197Z,98215.38
2022-11-26T03:55:33.101Z,98216.41
2022-11-26T03:58:03.220Z,98216.73
2022-11-26T04:00:36.138Z,98217.59
2022-11-26T04:03:06.363Z,98221.00
2022-11-26T04:05:36.502Z,98220.34
2022-11-26T04:08:06.619Z,98216.57
2022-11-26T04:10:36.798Z,98215.11
2022-11-26T04:13:06.533Z,98214.30
2022-11-26T04:15:36.487Z,98216.03
2022-11-26T04:18:06.467Z,98217.56
2022-11-26T04:20:36.308Z,98218.56
2022-11-26T04:23:06.378Z,98223.84
2022-11-26T04:25:36.587Z,98221.79
2022-11-26T04:28:06.717Z,98227.25
2022-11-26T04:30:36.956Z,98230.33
2022-11-26T04:33:06.888Z,98231.02
2022-11-26T04:35:37.601Z,98232.02
2022-11-26T04:38:07.950Z,98236.08
2022-11-26T04:40:38.158Z,98234.92
2022-11-26T04:43:08.039Z,98239.02
2022-11-26T04:45:37.981Z,98235.75
2022-11-26T04:48:08.649Z,98240.02
2022-11-26T04:50:38.498Z,98240.86
2022-11-26T04:53:08.498Z,98239.33
2022-11-26T04:55:38.550Z,98245.45
2022-11-26T04:58:08.387Z,98246.83
2022-11-26T05:00:40.095Z,98249.56
2022-11-26T05:03:10.354Z,98254.02
2022-11-26T05:05:40.802Z,98254.19
2022-11-26T05:08:10.847Z,98249.27
2022-11-26T05:10:40.831Z,98255.61
2022-11-26T05:13:10.712Z,98259.70
2022-11-26T05:15:40.938Z,98264.09
2022-11-26T05:18:10.748Z,98263.71
2022-11-26T05:20:40.600Z,98267.45
2022-11-26T05:23:10.796Z,98268.45
2022-11-26T05:25:40.926Z,98266.02
2022-11-26T05:28:10.739Z,98266.96
2022-11-26T05:30:40.709Z,98272.05
2022-11-26T05:33:10.610Z,98272.52
2022-11-26T05:35:40.388Z,98276.95
2022-11-26T05:38:10.508Z,98283.43
2022-11-26T05:40:40.879Z,98291.98
2022-11-26T05:43:10.588Z,98289.45
2022-11-26T05:45:40.699Z,98299.56
2022-11-26T05:48:10.478Z,98299.02
2022-11-26T05:50:40.730Z,98296.85
2022-11-26T05:53:10.647Z,98301.52
2022-11-26T05:55:40.462Z,98297.75
2022-11-26T05:58:10.499Z,98300.59
2022-11-26T06:00:40.228Z,98303.52
2022-11-26T06:03:11.418Z,98307.48
2022-11-26T06:05:41.440Z,98303.71
2022-11-26T06:08:11.527Z,98310.20
2022-11-26T06:10:42.958Z,98309.55
2022-11-26T06:13:12.860Z,98306.98
2022-11-26T06:15:44.609Z,98309.54
2022-11-26T06:18:16.868Z,98310.08
2022-11-26T06:20:47.298Z,98309.73
2022-11-26T06:23:20.077Z,98313.84
2022-11-26T06:25:49.987Z,98313.51
2022-11-26T06:28:19.973Z,98316.41
2022-11-26T06:30:49.880Z,98319.14
2022-11-26T06:33:19.899Z,98319.13
2022-11-26T06:35:49.819Z,98322.05
2022-11-26T06:38:19.556Z,98324.31
2022-11-26T06:40:50.341Z,98323.13
2022-11-26T06:43:20.228Z,98330.48
2022-11-26T06:45:50.654Z,98332.73
2022-11-26T06:48:22.427Z,98332.41
2022-11-26T06:50:52.698Z,98334.81
2022-11-26T06:53:22.628Z,98333.27
2022-11-26T06:55:52.628Z,98333.42
2022-11-26T06:58:25.867Z,98332.46
2022-11-26T07:00:55.139Z,98331.35
2022-11-26T07:03:31.947Z,98332.90
2022-11-26T07:06:03.178Z,98333.02
2022-11-26T07:08:35.208Z,98334.27
2022-11-26T07:11:05.723Z,98339.29
2022-11-26T07:13:35.608Z,98334.05
2022-11-26T07:16:06.913Z,98334.95
2022-11-26T07:18:36.917Z,98350.36
2022-11-26T07:21:08.728Z,98363.52
2022-11-26T07:23:39.667Z,98360.62
2022-11-26T07:26:11.984Z,98369.55
2022-11-26T07:28:42.059Z,98371.98
2022-11-26T07:31:16.827Z,98378.53
2022-11-26T07:33:48.113Z,98386.61
2022-11-26T07:36:20.948Z,98390.77
2022-11-26T07:38:50.927Z,98390.80
2022-11-26T07:41:22.497Z,98392.55
2022-11-26T07:43:52.857Z,98398.77
2022-11-26T07:46:25.084Z,98399.11
2022-11-26T07:48:56.745Z,98395.33
2022-11-26T07:51:28.609Z,98398.34
2022-11-26T07:54:00.400Z,98394.08
2022-11-26T07:56:30.405Z,98394.44
2022-11-26T07:59:00.687Z,98394.98
2022-11-26T08:01:32.007Z,98400.30
2022-11-26T08:04:05.268Z,98400.28
2022-11-26T08:06:35.808Z,98399.75
2022-11-26T08:09:07.344Z,98393.42
2022-11-26T08:11:37.487Z,98396.98
2022-11-26T08:14:10.984Z,98397.48
2022-11-26T08:16:41.407Z,98401.45
2022-11-26T08:19:14.802Z,98399.40
2022-11-26T08:21:45.078Z,98404.37
2022-11-26T08:24:20.172Z,98406.41
2022-11-26T08:26:50.336Z,98409.35
2022-11-26T08:29:20.626Z,98410.40
2022-11-26T08:31:50.650Z,98411.44
2022-11-26T08:34:21.395Z,98415.88
2022-11-26T08:36:51.982Z,98418.27
2022-11-26T08:39:22.075Z,98423.58
2022-11-26T08:41:52.829Z,98423.23
2022-11-26T08:44:23.118Z,98427.52
2022-11-26T08:46:53.066Z,98430.08
2022-11-26T08:49:23.382Z,98430.78
2022-11-26T08:51:55.358Z,98434.40
2022-11-26T08:54:25.968Z,98431.16
2022-11-26T08:56:56.447Z,98434.41
2022-11-26T08:59:26.657Z,98435.13
2022-11-26T09:01:58.139Z,98438.95
2022-11-26T09:04:31.468Z,98435.05
2022-11-26T09:07:01.818Z,98441.92
2022-11-26T09:09:32.000Z,98437.33
2022-11-26T09:12:05.957Z,98436.48
2022-11-26T09:14:39.901Z,98439.80
2022-11-26T09:17:11.976Z,98439.83
2022-11-26T09:19:42.328Z,98442.94
2022-11-26T09:22:12.313Z,98449.81
2022-11-26T09:24:43.037Z,98448.98
2022-11-26T09:27:13.779Z,98446.83
2022-11-26T09:29:44.047Z,98447.89
2022-11-26T09:32:33.930Z,98446.89
2022-11-26T09:35:04.417Z,98444.34
2022-11-26T09:37:34.387Z,98443.19
2022-11-26T09:40:04.759Z,98445.26
2022-11-26T09:42:49.095Z,98445.11
2022-11-26T09:45:37.923Z,98444.43
2022-11-26T09:48:16.268Z,98442.89
2022-11-26T09:50:48.107Z,98441.35
2022-11-26T09:53:22.504Z,98447.70
2022-11-26T09:55:55.502Z,98446.67
2022-11-26T09:58:33.487Z,98449.25
2022-11-26T10:01:06.717Z,98448.56
2022-11-26T10:03:39.431Z,98450.29
2022-11-26T10:06:19.307Z,98452.73
2022-11-26T10:09:26.039Z,98453.61
2022-11-26T10:12:02.855Z,98452.93
2022-11-26T10:14:46.517Z,98453.80
2022-11-26T10:17:34.026Z,98452.45
2022-11-26T10:20:23.013Z,98453.14
2022-11-26T10:22:57.720Z,98452.67
2022-11-26T10:25:39.187Z,98447.56
2022-11-26T10:28:20.356Z,98447.21
2022-11-26T10:31:02.509Z,98447.39
2022-11-26T10:33:49.960Z,98446.92
2022-11-26T10:36:26.618Z,98450.36
2022-11-26T10:38:59.869Z,98444.87
2022-11-26T10:41:36.510Z,98444.88
2022-11-26T10:44:33.333Z,98446.91
2022-11-26T10:47:25.449Z,98450.02
2022-11-26T10:50:45.434Z,98450.84
2022-11-26T10:53:25.140Z,98451.51
2022-11-26T10:56:05.590Z,98452.71
2022-11-26T10:58:48.083Z,98447.27
2022-11-26T11:01:26.439Z,98452.59
2022-11-26T11:04:08.811Z,98453.62
2022-11-26T11:06:46.652Z,98455.85
2022-11-26T11:09:36.640Z,98457.05
2022-11-26T11:12:27.884Z,98456.20
2022-11-26T11:15:30.923Z,98451.92
2022-11-26T11:18:16.460Z,98449.71
2022-11-26T11:20:57.437Z,98454.73
2022-11-26T11:24:00.138Z,98455.92
2022-11-26T11:26:25.247Z,98458.86
2022-11-26T11:28:57.917Z,98462.63
2022-11-26T11:31:29.362Z,98460.91
2022-11-26T11:34:18.298Z,98461.77
2022-11-26T11:37:00.661Z,98465.73
2022-11-26T11:39:32.853Z,98467.96
2022-11-26T11:42:17.597Z,98468.48
2022-11-26T11:44:49.669Z,98468.30
2022-11-26T11:47:31.697Z,98466.92
2022-11-26T11:50:17.219Z,98474.64
2022-11-26T11:52:58.223Z,98476.19
2022-11-26T11:55:46.588Z,98473.27
2022-11-26T11:58:32.669Z,98471.55
2022-11-26T12:01:12.158Z,98473.55
2022-11-26T12:04:19.759Z,98476.96
2022-11-26T12:07:00.290Z,98475.90
2022-11-26T12:09:37.259Z,98481.91
2022-11-26T12:12:17.437Z,98484.30
2022-11-26T12:14:52.379Z,98484.09
2022-11-26T12:17:33.432Z,98480.99
2022-11-26T12:20:15.134Z,98482.87
2022-11-26T12:22:51.382Z,98478.56
2022-11-26T12:25:33.530Z,98482.66
2022-11-26T12:28:12.897Z,98481.77
2022-11-26T12:30:52.228Z,98480.05
2022-11-26T12:33:30.267Z,98480.73
2022-11-26T12:36:05.728Z,98477.46
2022-11-26T12:38:43.897Z,98480.89
2022-11-26T12:41:19.574Z,98483.96
2022-11-26T12:43:57.288Z,98486.18
2022-11-26T12:46:35.518Z,98484.95
2022-11-26T12:49:16.145Z,98483.05
2022-11-26T12:51:50.620Z,98484.11
2022-11-26T12:54:27.838Z,98485.64
2022-11-26T12:57:03.480Z,98488.68
2022-11-26T12:59:38.867Z,98490.58
2022-11-26T13:02:21.342Z,98490.59
2022-11-26T13:04:51.944Z,98486.27
2022-11-26T13:07:36.066Z,98478.54
2022-11-26T13:10:20.507Z,98488.83
2022-11-26T13:12:58.769Z,98493.24
2022-11-26T13:15:34.482Z,98491.02
2022-11-26T13:18:13.948Z,98492.91
2022-11-26T13:21:03.648Z,98501.30
2022-11-26T13:23:50.367Z,98499.23
2022-11-26T13:26:37.487Z,98496.31
2022-11-26T13:29:32.926Z,98497.49
2022-11-26T13:32:35.986Z,98500.04
2022-11-26T13:35:24.138Z,98502.09
2022-11-26T13:38:10.237Z,98502.94
2022-11-26T13:41:08.382Z,98510.98
2022-11-26T13:44:20.818Z,98510.96
2022-11-26T13:46:56.517Z,98515.92
2022-11-26T13:49:34.418Z,98514.89
2022-11-26T13:52:10.908Z,98520.55
2022-11-26T13:54:45.774Z,98519.16
2022-11-26T13:57:19.306Z,98517.80
2022-11-26T13:59:51.906Z,98519.19
2022-11-26T14:02:42.244Z,98518.16
2022-11-26T14:05:14.909Z,98520.05
2022-11-26T14:07:46.393Z,98519.87
2022-11-26T14:10:41.897Z,98522.61
2022-11-26T14:13:19.337Z,98523.11
2022-11-26T14:16:01.348Z,98523.44
2022-11-26T14:18:59.469Z,98523.09
2022-11-26T14:21:30.776Z,98521.35
2022-11-26T14:24:01.937Z,98521.17
2022-11-26T14:26:36.975Z,98526.31
2022-11-26T14:29:15.126Z,98527.34
2022-11-26T14:31:51.368Z,98527.83
2022-11-26T14:34:30.235Z,98522.84
2022-11-26T14:37:01.654Z,98525.57
2022-11-26T14:39:32.617Z,98524.34
2022-11-26T14:42:06.378Z,98523.32
2022-11-26T14:44:37.072Z,98528.10
2022-11-26T14:47:17.074Z,98531.88
2022-11-26T14:49:54.099Z,98533.58
2022-11-26T14:52:27.811Z,98535.96
2022-11-26T14:55:00.017Z,98538.71
2022-11-26T14:57:39.166Z,98537.70
2022-11-26T15:00:23.821Z,98545.09
2022-11-26T15:02:54.849Z,98549.89
2022-11-26T15:05:26.695Z,98549.89
2022-11-26T15:08:01.490Z,98552.45
2022-11-26T15:10:41.267Z,98555.02
2022-11-26T15:13:17.017Z,98555.20
2022-11-26T15:15:53.907Z,98553.66
2022-11-26T15:18:29.258Z,98558.98
2022-11-26T15:21:01.457Z,98562.23
2022-11-26T15:23:39.418Z,98564.80
2022-11-26T15:26:18.177Z,98568.58
2022-11-26T15:28:49.228Z,98568.74
2022-11-26T15:31:19.709Z,98569.27
2022-11-26T15:33:51.147Z,98570.29
2022-11-26T15:36:21.720Z,98564.98
2022-11-26T15:39:07.746Z,98569.61
2022-11-26T15:41:42.854Z,98570.61
2022-11-26T15:44:23.595Z,98569.25
2022-11-26T15:46:56.148Z,98575.06
2022-11-26T15:49:29.389Z,98577.63
2022-11-26T15:52:04.240Z,98583.09
2022-11-26T15:55:04.683Z,98581.88
2022-11-26T15:57:35.726Z,98581.33
2022-11-26T16:00:06.609Z,98581.31
2022-11-26T16:02:40.665Z,98581.80
2022-11-26T16:05:28.337Z,98584.23
2022-11-26T16:08:02.483Z,98584.39
2022-11-26T16:10:35.631Z,98591.56
2022-11-26T16:13:22.597Z,98591.36
2022-11-26T16:16:01.217Z,98597.52
2022-11-26T16:18:37.177Z,98600.05
2022-11-26T16:21:16.160Z,98604.86
2022-11-26T16:23:56.658Z,98607.22
2022-11-26T16:26:27.874Z,98609.19
2022-11-26T16:29:05.413Z,98612.96
2022-11-26T16:31:44.744Z,98614.80
2022-11-26T16:34:30.517Z,98613.09
2022-11-26T16:37:23.833Z,98613.59
2022-11-26T16:40:02.741Z,98618.19
2022-11-26T16:42:34.337Z,98621.25
2022-11-26T16:45:04.877Z,98621.08
2022-11-26T16:47:39.305Z,98622.79
2022-11-26T16:50:21.257Z,98618.69
2022-11-26T16:52:51.727Z,98618.84
2022-11-26T16:55:23.047Z,98621.77
2022-11-26T16:57:56.763Z,98627.59
2022-11-26T17:00:27.937Z,98628.61
2022-11-26T17:02:58.404Z,98628.57
2022-11-26T17:05:28.377Z,98634.39
2022-11-26T17:08:02.041Z,98641.05
2022-11-26T17:10:30.857Z,98647.31
2022-11-26T17:13:00.878Z,98652.67
2022-11-26T17:15:30.958Z,98649.40
2022-11-26T17:18:19.867Z,98648.52
2022-11-26T17:20:53.413Z,98644.23
2022-11-26T17:23:29.091Z,98645.92
2022-11-26T17:26:00.764Z,98648.27
2022-11-26T17:28:30.857Z,98649.65
2022-11-26T17:31:01.027Z,98652.04
2022-11-26T17:33:31.097Z,98656.16
2022-11-26T17:36:01.553Z,98655.30
2022-11-26T17:38:32.792Z,98653.09
2022-11-26T17:41:03.438Z,98651.67
2022-11-26T17:43:35.997Z,98652.36
2022-11-26T17:46:10.408Z,98649.91
2022-11-26T17:48:41.110Z,98651.11
2022-11-26T17:51:14.157Z,98655.70
2022-11-26T17:53:44.897Z,98659.97
2022-11-26T17:56:19.169Z,98663.73
2022-11-26T17:58:50.169Z,98665.77
2022-11-26T18:01:20.719Z,98667.11
2022-11-26T18:03:52.161Z,98666.76
2022-11-26T18:06:34.436Z,98668.80
2022-11-26T18:09:04.666Z,98671.52
2022-11-26T18:11:47.227Z,98672.73
2022-11-26T18:14:17.930Z,98668.25
2022-11-26T18:16:48.237Z,98671.98
2022-11-26T18:19:19.757Z,98670.41
2022-11-26T18:21:52.309Z,98674.64
2022-11-26T18:24:22.857Z,98673.94
2022-11-26T18:26:56.039Z,98676.45
2022-11-26T18:29:27.421Z,98675.27
2022-11-26T18:31:57.577Z,98682.58
2022-11-26T18:34:30.217Z,98680.15
2022-11-26T18:37:01.940Z,98676.71
2022-11-26T18:39:34.836Z,98682.85
2022-11-26T18:44:59.172Z,98685.86
2022-11-26T18:47:29.097Z,98687.91
2022-11-26T18:49:59.303Z,98692.27
2022-11-26T18:52:31.300Z,98694.30
2022-11-26T18:55:04.498Z,98698.02
2022-11-26T18:57:34.055Z,98699.95
2022-11-26T19:00:06.608Z,98703.94
2022-11-26T19:02:38.339Z,98708.89
2022-11-26T19:05:12.319Z,98712.95
2022-11-26T19:07:45.369Z,98716.98
2022-11-26T19:10:17.338Z,98714.70
2022-11-26T19:12:49.198Z,98719.44
2022-11-26T19:15:20.309Z,98723.27
2022-11-26T19:17:50.325Z,98722.89
2022-11-26T19:20:22.306Z,98733.42
2022-11-26T19:22:54.744Z,98738.99
2022-11-26T19:25:27.929Z,98737.67
2022-11-26T19:28:05.304Z,98740.13
2022-11-26T19:30:38.266Z,98744.61
2022-11-26T19:33:11.090Z,98745.46
2022-11-26T19:35:43.528Z,98749.20
2022-11-26T19:38:16.217Z,98750.17
2022-11-26T19:40:50.381Z,98751.08
2022-11-26T19:43:22.163Z,98751.84
2022-11-26T19:46:01.122Z,98758.54
2022-11-26T19:48:34.248Z,98765.80
2022-11-26T19:51:03.707Z,98769.81
2022-11-26T19:53:36.210Z,98774.52
2022-11-26T19:56:13.897Z,98779.86
2022-11-26T19:58:44.517Z,98781.19
2022-11-26T20:01:16.691Z,98778.08
2022-11-26T20:03:46.728Z,98778.14
2022-11-26T20:06:18.975Z,98779.56
2022-11-26T20:08:49.758Z,98780.23
2022-11-26T20:11:23.748Z,98781.05
2022-11-26T20:13:53.838Z,98783.83
2022-11-26T20:16:27.095Z,98786.94
2022-11-26T20:18:57.677Z,98789.36
2022-11-26T20:21:31.598Z,98787.79
2022-11-26T20:24:05.047Z,98787.56
2022-11-26T20:26:37.447Z,98788.27
2022-11-26T20:29:10.634Z,98791.70
2022-11-26T20:31:44.407Z,98797.27
2022-11-26T20:34:19.034Z,98800.05
2022-11-26T20:36:51.917Z,98800.39
2022-11-26T20:39:28.800Z,98800.60
2022-11-26T20:41:59.258Z,98802.30
2022-11-26T20:44:29.718Z,98802.31
2022-11-26T20:46:59.578Z,98802.27
2022-11-26T20:49:38.871Z,98800.91
2022-11-26T20:52:13.697Z,98806.36
2022-11-26T20:54:43.999Z,98810.30
2022-11-26T20:57:17.625Z,98809.90
2022-11-26T20:59:51.363Z,98810.88
2022-11-26T21:02:22.048Z,98812.04
2022-11-26T21:04:52.090Z,98808.47
2022-11-26T21:07:22.217Z,98806.73
2022-11-26T21:09:52.470Z,98809.88
2022-11-26T21:12:22.408Z,98809.78
2022-11-26T21:14:53.118Z,98814.06
2022-11-26T21:17:23.215Z,98814.14
2022-11-26T21:19:53.716Z,98816.95
2022-11-26T21:22:24.339Z,98813.63
2022-11-26T21:24:54.828Z,98810.84
2022-11-26T21:27:25.590Z,98810.15
2022-11-26T21:29:55.520Z,98819.12
2022-11-26T21:32:28.699Z,98817.04
2022-11-26T21:34:59.439Z,98817.34
2022-11-26T21:37:29.938Z,98819.98
2022-11-26T21:39:59.768Z,98823.97
2022-11-26T21:42:29.861Z,98828.77
2022-11-26T21:44:59.899Z,98830.12
2022-11-26T21:47:30.058Z,98835.13
2022-11-26T21:49:59.858Z,98836.02
2022-11-26T21:52:30.257Z,98835.31
2022-11-26T21:55:03.667Z,98838.33
2022-11-26T21:57:35.096Z,98843.48
2022-11-26T22:00:06.937Z,98848.47
2022-11-26T22:02:37.574Z,98842.50
2022-11-26T22:05:08.473Z,98844.41
2022-11-26T22:07:38.507Z,98844.65
2022-11-26T22:10:11.359Z,98844.02
2022-11-26T22:12:41.037Z,98846.38
2022-11-26T22:15:11.939Z,98844.13
2022-11-26T22:17:41.819Z,98846.16
2022-11-26T22:20:13.887Z,98846.00
2022-11-26T22:22:43.835Z,98845.00
2022-11-26T22:25:13.660Z,98848.03
2022-11-26T22:27:43.607Z,98850.23
2022-11-26T22:30:14.540Z,98851.92
2022-11-26T22:32:44.581Z,98850.36
2022-11-26T22:35:14.562Z,98856.48
2022-11-26T22:37:44.691Z,98858.19
2022-11-26T22:40:15.119Z,98859.30
2022-11-26T22:42:45.119Z,98865.98
2022-11-26T22:45:15.281Z,98869.86
2022-11-26T22:47:48.550Z,98871.54
2022-11-26T22:50:22.321Z,98864.49
2022-11-26T22:52:52.244Z,98862.29
2022-11-26T22:55:23.072Z,98860.25
2022-11-26T22:57:53.002Z,98862.14
2022-11-26T23:00:46.609Z,98860.74
2022-11-26T23:03:17.256Z,98866.42
2022-11-26T23:05:48.312Z,98864.86
2022-11-26T23:08:18.383Z,98859.98
2022-11-26T23:10:48.929Z,98860.35
2022-11-26T23:13:18.804Z,98855.45
2022-11-26T23:15:48.872Z,98856.67
2022-11-26T23:18:18.841Z,98856.72
2022-11-26T23:20:48.641Z,98861.98
2022-11-26T23:23:19.010Z,98856.50
2022-11-26T23:25:48.781Z,98858.39
2022-11-26T23:28:18.909Z,98852.89
2022-11-26T23:30:48.861Z,98853.90
2022-11-26T23:33:18.845Z,98855.21
2022-11-26T23:35:48.734Z,98849.67
2022-11-26T23:38:18.702Z,98851.36
2022-11-26T23:40:54.805Z,98850.16
2022-11-26T23:43:25.885Z,98851.36
2022-11-26T23:46:02.428Z,98850.44
2022-11-26T23:48:33.051Z,98849.02
2022-11-26T23:51:05.961Z,98854.79
2022-11-26T23:53:37.063Z,98861.08
2022-11-26T23:56:11.761Z,98863.59
2022-11-26T23:58:41.661Z,98865.46
